CMB851 Details

Departure: Paya Lebar Airport (WSAP)
Arrival: Yokota AFB (RJTY)
Route: TOMAN L625 MEVIN B462 KAZIK Y59 AZAMA Y57 BUNGU XAC
Notes: USTRANSCOM CONTRACT FLIGHT


Current Weather Information
WSAP 251100Z 20007KT 9999 FEW018 BKN300 30/24 Q1008
RJTY 251056Z AUTO 19008KT 10SM CLR 22/15 A3008 RMK AO2 SLP185 T02210152 FZRANO $